createdAt,value
2022-08-05T00:00:16.451Z,6.37
2022-08-05T00:01:20.309Z,6.43
2022-08-05T00:02:11.294Z,6.20
2022-08-05T00:02:58.493Z,6.60
2022-08-05T00:03:45.284Z,6.57
2022-08-05T00:04:33.051Z,6.35
2022-08-05T00:06:02.912Z,6.30
2022-08-05T00:06:32.836Z,6.40
2022-08-05T00:07:26.901Z,6.62
2022-08-05T00:08:34.624Z,6.45
2022-08-05T00:09:22.113Z,6.30
2022-08-05T00:10:09.252Z,6.35
2022-08-05T00:10:56.719Z,6.47
2022-08-05T00:11:55.706Z,5.78
2022-08-05T00:12:48.510Z,6.40
2022-08-05T00:14:39.832Z,6.22
2022-08-05T00:15:57.525Z,6.35
2022-08-05T00:16:36.354Z,6.35
2022-08-05T00:17:39.019Z,6.25
2022-08-05T00:18:28.978Z,6.60
2022-08-05T00:19:15.761Z,6.15
2022-08-05T00:20:03.250Z,6.20
2022-08-05T00:20:52.850Z,6.60
2022-08-05T00:21:39.710Z,6.25
2022-08-05T00:22:29.580Z,7.12
2022-08-05T00:23:31.054Z,5.90
2022-08-05T00:24:30.686Z,6.72
2022-08-05T00:25:18.179Z,6.65
2022-08-05T00:26:05.629Z,5.90
2022-08-05T00:26:53.339Z,6.35
2022-08-05T00:27:40.670Z,6.95
2022-08-05T00:28:29.955Z,6.28
2022-08-05T00:29:16.880Z,6.25
2022-08-05T00:30:11.417Z,6.47
2022-08-05T00:30:58.440Z,6.20
2022-08-05T00:31:53.610Z,6.85
2022-08-05T00:32:57.550Z,6.30
2022-08-05T00:34:55.331Z,6.22
2022-08-05T00:35:05.161Z,6.50
2022-08-05T00:36:15.000Z,5.95
2022-08-05T00:37:11.754Z,6.32
2022-08-05T00:38:01.422Z,6.22
2022-08-05T00:38:49.749Z,6.03
2022-08-05T00:39:37.179Z,6.28
2022-08-05T00:40:29.466Z,6.00
2022-08-05T00:41:27.919Z,6.35
2022-08-05T00:42:39.879Z,7.05
2022-08-05T00:43:26.943Z,6.30
2022-08-05T00:44:33.559Z,6.15
2022-08-05T00:45:28.276Z,6.53
2022-08-05T00:46:42.769Z,5.93
2022-08-05T00:47:49.204Z,6.07
2022-08-05T00:48:51.184Z,6.50
2022-08-05T00:49:51.290Z,5.90
2022-08-05T00:50:41.385Z,6.45
2022-08-05T00:51:51.532Z,5.90
2022-08-05T00:52:39.211Z,6.35
2022-08-05T00:54:01.350Z,7.10
2022-08-05T00:54:33.199Z,5.82
2022-08-05T00:55:19.989Z,5.87
2022-08-05T00:56:07.745Z,6.45
2022-08-05T00:56:54.780Z,6.37
2022-08-05T00:57:58.158Z,6.50
2022-08-05T00:58:46.047Z,6.10
2022-08-05T00:59:44.281Z,6.10
2022-08-05T01:00:32.225Z,5.93
2022-08-05T01:01:41.980Z,6.40
2022-08-05T01:02:27.350Z,6.32
2022-08-05T01:03:22.558Z,6.15
2022-08-05T01:04:13.593Z,6.80
2022-08-05T01:05:01.223Z,6.05
2022-08-05T01:05:54.847Z,6.62
2022-08-05T01:06:41.859Z,6.28
2022-08-05T01:07:33.523Z,6.30
2022-08-05T01:08:30.292Z,6.70
2022-08-05T01:09:30.346Z,6.97
2022-08-05T01:10:19.319Z,6.82
2022-08-05T01:11:33.350Z,5.85
2022-08-05T01:12:21.821Z,6.30
2022-08-05T01:13:19.504Z,6.12
2022-08-05T01:14:45.940Z,6.10
2022-08-05T01:15:36.834Z,5.78
2022-08-05T01:16:54.981Z,6.10
2022-08-05T01:17:53.727Z,6.80
2022-08-05T01:18:48.186Z,6.35
2022-08-05T01:20:03.048Z,6.50
2022-08-05T01:20:52.458Z,6.03
2022-08-05T01:22:05.400Z,6.50
2022-08-05T01:22:57.201Z,6.35
2022-08-05T01:23:53.293Z,6.05
2022-08-05T01:25:04.646Z,6.30
2022-08-05T01:25:57.079Z,6.22
2022-08-05T01:27:22.123Z,6.65
2022-08-05T01:28:27.490Z,6.12
2022-08-05T01:29:23.083Z,6.10
2022-08-05T01:30:12.402Z,5.75
2022-08-05T01:31:27.060Z,6.30
2022-08-05T01:32:18.557Z,6.12
2022-08-05T01:33:08.706Z,6.30
2022-08-05T01:34:16.018Z,6.30
2022-08-05T01:35:51.240Z,6.57
2022-08-05T01:36:28.088Z,6.53
2022-08-05T01:37:27.629Z,6.20
2022-08-05T01:38:27.412Z,5.82
2022-08-05T01:39:36.178Z,6.60
2022-08-05T01:40:28.989Z,6.37
2022-08-05T01:41:18.175Z,6.32
2022-08-05T01:42:11.462Z,6.72
2022-08-05T01:43:03.591Z,6.80
2022-08-05T01:43:51.409Z,6.53
2022-08-05T01:44:39.459Z,6.15
2022-08-05T01:45:28.391Z,6.60
2022-08-05T01:46:42.044Z,6.30
2022-08-05T01:47:39.476Z,6.57
2022-08-05T01:48:30.548Z,6.57
2022-08-05T01:49:23.709Z,6.50
2022-08-05T01:50:15.983Z,6.53
2022-08-05T01:51:12.509Z,6.05
2022-08-05T01:52:01.666Z,6.05
2022-08-05T01:53:08.048Z,6.12
2022-08-05T01:53:58.111Z,6.03
2022-08-05T01:54:49.539Z,6.53
2022-08-05T01:55:41.359Z,6.20
2022-08-05T01:58:09.367Z,6.35
2022-08-05T01:58:29.306Z,6.57
2022-08-05T01:58:50.277Z,6.60
2022-08-05T01:59:39.290Z,5.95
2022-08-05T02:00:30.337Z,6.30
2022-08-05T02:01:25.309Z,6.30
2022-08-05T02:02:15.955Z,6.32
2022-08-05T02:03:50.124Z,6.40
2022-08-05T02:04:38.459Z,6.22
2022-08-05T02:06:37.892Z,6.53
2022-08-05T02:07:25.569Z,6.03
2022-08-05T02:08:28.961Z,6.95
2022-08-05T02:09:20.448Z,6.80
2022-08-05T02:10:08.101Z,6.75
2022-08-05T02:11:03.590Z,6.50
2022-08-05T02:11:57.299Z,6.18
2022-08-05T02:12:51.165Z,6.15
2022-08-05T02:13:59.090Z,6.28
2022-08-05T02:14:53.498Z,6.18
2022-08-05T02:15:45.929Z,5.97
2022-08-05T02:16:37.599Z,7.05
2022-08-05T02:18:32.053Z,6.32
2022-08-05T02:18:50.979Z,6.30
2022-08-05T02:20:40.824Z,6.65
2022-08-05T02:21:42.891Z,6.60
2022-08-05T02:22:38.638Z,6.18
2022-08-05T02:23:30.500Z,6.30
2022-08-05T02:24:23.728Z,6.75
2022-08-05T02:25:17.969Z,6.60
2022-08-05T02:26:06.860Z,6.80
2022-08-05T02:27:00.348Z,6.82
2022-08-05T02:28:00.120Z,6.68
2022-08-05T02:28:48.150Z,6.85
2022-08-05T02:29:58.897Z,7.32
2022-08-05T02:30:54.177Z,6.87
2022-08-05T02:31:41.829Z,6.53
2022-08-05T02:32:31.960Z,6.65
2022-08-05T02:33:35.727Z,6.40
2022-08-05T02:34:28.036Z,6.45
2022-08-05T02:35:19.122Z,6.93
2022-08-05T02:36:17.092Z,6.82
2022-08-05T02:37:06.208Z,6.22
2022-08-05T02:37:55.799Z,6.12
2022-08-05T02:38:52.968Z,6.50
2022-08-05T02:39:41.497Z,6.55
2022-08-05T02:40:34.619Z,6.25
2022-08-05T02:41:23.187Z,6.40
2022-08-05T02:42:11.178Z,6.20
2022-08-05T02:43:15.337Z,6.80
2022-08-05T02:44:06.790Z,6.75
2022-08-05T02:45:00.639Z,6.80
2022-08-05T02:45:51.491Z,6.35
2022-08-05T02:46:44.048Z,6.62
2022-08-05T02:48:06.555Z,6.50
2022-08-05T02:48:52.779Z,6.47
2022-08-05T02:49:44.698Z,7.03
2022-08-05T02:50:32.210Z,7.03
2022-08-05T02:51:19.550Z,6.47
2022-08-05T02:52:29.475Z,6.40
2022-08-05T02:53:20.918Z,6.57
2022-08-05T02:54:07.951Z,6.78
2022-08-05T02:54:55.430Z,6.30
2022-08-05T02:55:54.454Z,6.32
2022-08-05T02:56:47.559Z,6.30
2022-08-05T02:58:11.718Z,6.70
2022-08-05T02:58:43.918Z,6.25
2022-08-05T02:59:30.894Z,6.60
2022-08-05T03:00:35.579Z,6.55
2022-08-05T03:01:27.074Z,6.60
2022-08-05T03:02:15.479Z,6.80
2022-08-05T03:03:02.482Z,6.78
2022-08-05T03:04:03.277Z,7.22
2022-08-05T03:04:53.320Z,6.72
2022-08-05T03:06:54.658Z,6.80
2022-08-05T03:06:54.728Z,6.55
2022-08-05T03:08:00.316Z,6.68
2022-08-05T03:08:53.659Z,6.35
2022-08-05T03:09:51.636Z,7.00
2022-08-05T03:10:39.125Z,6.53
2022-08-05T03:11:54.739Z,6.50
2022-08-05T03:12:36.720Z,6.53
2022-08-05T03:13:27.559Z,6.80
2022-08-05T03:14:30.367Z,6.20
2022-08-05T03:15:17.488Z,6.28
2022-08-05T03:16:04.282Z,6.93
2022-08-05T03:16:53.416Z,6.22
2022-08-05T03:17:42.047Z,6.50
2022-08-05T03:18:31.688Z,6.78
2022-08-05T03:19:34.413Z,6.62
2022-08-05T03:20:24.567Z,6.03
2022-08-05T03:21:11.740Z,6.10
2022-08-05T03:21:58.560Z,6.70
2022-08-05T03:22:49.809Z,6.25
2022-08-05T03:23:39.109Z,6.75
2022-08-05T03:24:30.121Z,6.40
2022-08-05T03:25:33.617Z,6.70
2022-08-05T03:26:32.307Z,6.45
2022-08-05T03:27:20.943Z,6.62
2022-08-05T03:28:08.854Z,6.37
2022-08-05T03:28:55.879Z,6.75
2022-08-05T03:29:45.087Z,6.10
2022-08-05T03:30:49.702Z,6.50
2022-08-05T03:31:57.294Z,6.70
2022-08-05T03:32:45.487Z,6.25
2022-08-05T03:33:51.096Z,6.62
2022-08-05T03:34:39.970Z,6.43
2022-08-05T03:35:28.178Z,6.30
2022-08-05T03:36:15.669Z,6.75
2022-08-05T03:37:03.229Z,6.80
2022-08-05T03:37:50.068Z,6.62
2022-08-05T03:38:44.419Z,6.15
2022-08-05T03:39:59.358Z,6.05
2022-08-05T03:40:49.248Z,6.28
2022-08-05T03:41:45.153Z,6.62
2022-08-05T03:42:41.796Z,6.35
2022-08-05T03:44:08.368Z,6.47
2022-08-05T03:44:46.011Z,7.12
2022-08-05T03:45:57.234Z,6.47
2022-08-05T03:46:41.249Z,6.30
2022-08-05T03:47:30.590Z,6.53
2022-08-05T03:48:22.782Z,6.37
2022-08-05T03:49:09.611Z,6.68
2022-08-05T03:49:57.640Z,6.10
2022-08-05T03:50:54.061Z,7.22
2022-08-05T03:52:50.307Z,6.32
2022-08-05T03:55:49.977Z,6.45
2022-08-05T03:55:51.093Z,6.68
2022-08-05T03:56:09.850Z,5.87
2022-08-05T03:56:46.477Z,6.20
2022-08-05T03:57:42.544Z,6.05
2022-08-05T03:58:32.090Z,6.30
2022-08-05T03:59:47.120Z,6.62
2022-08-05T04:00:34.390Z,5.93
2022-08-05T04:01:22.552Z,6.55
2022-08-05T04:02:14.864Z,5.90
2022-08-05T04:03:06.337Z,6.50
2022-08-05T04:03:56.960Z,6.25
2022-08-05T04:05:01.880Z,6.70
2022-08-05T04:05:49.150Z,6.87
2022-08-05T04:06:36.159Z,6.30
2022-08-05T04:07:24.933Z,6.25
2022-08-05T04:08:14.634Z,6.75
2022-08-05T04:09:20.454Z,6.20
2022-08-05T04:10:13.560Z,6.37
2022-08-05T04:11:06.139Z,6.55
2022-08-05T04:11:52.920Z,6.18
2022-08-05T04:13:49.322Z,6.82
2022-08-05T04:14:33.558Z,6.32
2022-08-05T04:15:20.502Z,6.47
2022-08-05T04:16:14.328Z,6.05
2022-08-05T04:17:02.866Z,6.12
2022-08-05T04:17:56.624Z,6.32
2022-08-05T04:18:54.198Z,6.22
2022-08-05T04:19:45.958Z,6.87
2022-08-05T04:20:41.506Z,6.20
2022-08-05T04:22:05.265Z,6.47
2022-08-05T04:22:35.812Z,6.37
2022-08-05T04:23:57.389Z,6.43
2022-08-05T04:24:34.339Z,6.40
2022-08-05T04:25:38.488Z,5.97
2022-08-05T04:26:32.471Z,5.85
2022-08-05T04:27:19.420Z,6.40
2022-08-05T04:29:18.589Z,6.20
2022-08-05T04:30:07.981Z,5.93
2022-08-05T04:30:55.646Z,6.07
2022-08-05T04:31:43.011Z,6.65
2022-08-05T04:32:31.014Z,6.03
2022-08-05T04:33:20.539Z,5.50
2022-08-05T04:34:33.775Z,6.30
2022-08-05T04:35:22.020Z,6.03
2022-08-05T04:36:16.596Z,6.00
2022-08-05T04:37:17.431Z,5.82
2022-08-05T04:38:06.850Z,5.93
2022-08-05T04:38:55.276Z,5.60
2022-08-05T04:39:43.955Z,5.93
2022-08-05T04:40:44.472Z,5.65
2022-08-05T04:41:38.657Z,5.82
2022-08-05T04:42:25.739Z,5.68
2022-08-05T04:43:16.517Z,5.70
2022-08-05T04:44:09.605Z,5.25
2022-08-05T04:44:56.659Z,5.75
2022-08-05T04:45:48.224Z,5.65
2022-08-05T04:46:35.908Z,6.00
2022-08-05T04:47:22.939Z,5.75
2022-08-05T04:48:13.303Z,5.70
2022-08-05T04:49:14.589Z,6.03
2022-08-05T04:50:11.089Z,5.53
2022-08-05T04:51:02.593Z,5.40
2022-08-05T04:51:50.687Z,5.37
2022-08-05T04:52:47.344Z,5.65
2022-08-05T04:53:38.926Z,5.72
2022-08-05T04:54:28.789Z,5.97
2022-08-05T04:55:15.572Z,6.30
2022-08-05T04:56:14.812Z,5.70
2022-08-05T04:57:10.239Z,5.53
2022-08-05T04:57:57.087Z,6.25
2022-08-05T04:58:43.889Z,5.40
2022-08-05T04:59:39.243Z,5.57
2022-08-05T05:00:27.648Z,5.85
2022-08-05T05:01:33.672Z,5.40
2022-08-05T05:02:36.871Z,4.75
2022-08-05T05:03:28.427Z,5.50
2022-08-05T05:04:28.917Z,5.22
2022-08-05T05:05:16.663Z,5.10
2022-08-05T05:06:39.567Z,5.37
2022-08-05T05:07:29.271Z,4.87
2022-08-05T05:08:29.978Z,5.15
2022-08-05T05:09:18.401Z,4.80
2022-08-05T05:10:06.704Z,5.05
2022-08-05T05:10:56.221Z,4.87
2022-08-05T05:11:54.481Z,5.53
2022-08-05T05:12:43.619Z,4.93
2022-08-05T05:13:32.347Z,5.07
2022-08-05T05:14:32.001Z,5.00
2022-08-05T05:15:57.291Z,5.00
2022-08-05T05:16:30.383Z,5.00
2022-08-05T05:17:22.819Z,4.68
2022-08-05T05:18:15.060Z,5.25
2022-08-05T05:19:19.393Z,4.85
2022-08-05T05:20:11.733Z,4.97
2022-08-05T05:20:58.756Z,4.87
2022-08-05T05:21:46.426Z,4.82
2022-08-05T05:22:33.622Z,5.18
2022-08-05T05:23:20.469Z,4.87
2022-08-05T05:24:09.208Z,5.28
2022-08-05T05:24:59.467Z,4.85
2022-08-05T05:26:34.680Z,5.47
2022-08-05T05:27:22.599Z,5.12
2022-08-05T05:28:11.149Z,4.95
2022-08-05T05:28:57.864Z,4.95
2022-08-05T05:30:03.843Z,5.37
2022-08-05T05:30:51.800Z,4.82
2022-08-05T05:32:24.509Z,5.32
2022-08-05T05:33:17.074Z,5.12
2022-08-05T05:34:03.969Z,4.90
2022-08-05T05:34:52.410Z,5.32
2022-08-05T05:35:42.399Z,4.85
2022-08-05T05:36:30.208Z,4.40
2022-08-05T05:37:17.136Z,4.78
2022-08-05T05:38:05.664Z,4.80
2022-08-05T05:38:57.413Z,4.90
2022-08-05T05:39:44.528Z,4.80
2022-08-05T05:40:32.306Z,4.72
2022-08-05T05:41:20.139Z,4.95
2022-08-05T05:42:07.298Z,5.28
2022-08-05T05:42:54.918Z,5.18
2022-08-05T05:43:58.563Z,5.53
2022-08-05T05:44:47.258Z,5.12
2022-08-05T05:45:33.999Z,4.97
2022-08-05T05:46:20.831Z,4.93
2022-08-05T05:47:13.229Z,5.18
2022-08-05T05:48:08.975Z,4.72
2022-08-05T05:48:55.820Z,5.57
2022-08-05T05:49:42.679Z,4.97
2022-08-05T05:50:29.459Z,4.93
2022-08-05T05:51:23.559Z,5.07
2022-08-05T05:52:25.513Z,4.90
2022-08-05T05:53:20.811Z,4.95
2022-08-05T05:54:08.648Z,4.82
2022-08-05T05:55:07.465Z,4.53
2022-08-05T05:56:03.321Z,4.97
2022-08-05T05:56:50.188Z,4.60
2022-08-05T05:57:52.188Z,4.87
2022-08-05T05:58:40.326Z,4.85
2022-08-05T05:59:28.619Z,4.80
2022-08-05T06:00:20.068Z,5.32
2022-08-05T06:01:12.569Z,4.80
2022-08-05T06:02:00.285Z,4.90
2022-08-05T06:02:47.908Z,4.90
2022-08-05T06:03:53.864Z,4.87
2022-08-05T06:04:41.923Z,5.15
2022-08-05T06:05:29.189Z,4.68
2022-08-05T06:06:18.689Z,5.07
2022-08-05T06:08:01.996Z,4.65
2022-08-05T06:08:49.299Z,4.90
2022-08-05T06:10:00.053Z,5.10
2022-08-05T06:10:52.505Z,4.97
2022-08-05T06:11:39.748Z,5.12
2022-08-05T06:12:27.136Z,4.90
2022-08-05T06:13:14.148Z,4.65
2022-08-05T06:14:01.049Z,4.87
2022-08-05T06:14:49.090Z,4.68
2022-08-05T06:16:30.436Z,4.55
2022-08-05T06:16:45.534Z,4.65
2022-08-05T06:17:33.857Z,5.05
2022-08-05T06:18:40.468Z,4.87
2022-08-05T06:19:34.658Z,5.10
2022-08-05T06:20:22.592Z,4.62
2022-08-05T06:21:18.645Z,4.70
2022-08-05T06:22:07.132Z,4.82
2022-08-05T06:22:56.347Z,4.93
2022-08-05T06:23:45.118Z,4.93
2022-08-05T06:24:32.549Z,4.45
2022-08-05T06:25:25.063Z,4.50
2022-08-05T06:26:26.119Z,4.65
2022-08-05T06:28:10.651Z,4.60
2022-08-05T06:28:28.491Z,5.10
2022-08-05T06:29:42.829Z,4.80
2022-08-05T06:30:22.308Z,4.60
2022-08-05T06:31:17.899Z,4.70
2022-08-05T06:32:05.428Z,4.90
2022-08-05T06:33:10.689Z,4.93
2022-08-05T06:34:06.878Z,4.60
2022-08-05T06:34:57.204Z,4.55
2022-08-05T06:36:07.777Z,4.72
2022-08-05T06:36:57.618Z,4.80
2022-08-05T06:37:57.376Z,4.72
2022-08-05T06:38:46.947Z,4.50
2022-08-05T06:39:34.271Z,4.80
2022-08-05T06:40:21.616Z,4.97
2022-08-05T06:41:14.870Z,4.50
2022-08-05T06:42:04.034Z,4.72
2022-08-05T06:42:52.517Z,4.72
2022-08-05T06:43:59.047Z,4.60
2022-08-05T06:44:46.259Z,4.72
2022-08-05T06:45:44.548Z,4.57
2022-08-05T06:46:42.978Z,4.85
2022-08-05T06:48:36.411Z,4.65
2022-08-05T06:48:56.349Z,4.65
2022-08-05T06:50:00.034Z,4.65
2022-08-05T06:50:49.937Z,4.35
2022-08-05T06:51:36.892Z,4.53
2022-08-05T06:52:37.733Z,4.28
2022-08-05T06:53:28.426Z,4.47
2022-08-05T06:54:18.965Z,4.82
2022-08-05T06:55:07.243Z,4.65
2022-08-05T06:55:54.029Z,4.35
2022-08-05T06:56:40.969Z,4.50
2022-08-05T06:57:57.294Z,4.22
2022-08-05T06:58:48.480Z,4.22
2022-08-05T06:59:38.478Z,4.60
2022-08-05T07:00:26.089Z,4.50
2022-08-05T07:01:16.776Z,4.60
2022-08-05T07:02:08.338Z,4.65
2022-08-05T07:02:55.378Z,4.40
2022-08-05T07:03:42.157Z,4.78
2022-08-05T07:04:28.881Z,4.65
2022-08-05T07:05:18.877Z,4.53
2022-08-05T07:06:14.332Z,4.40
2022-08-05T07:07:02.218Z,4.57
2022-08-05T07:07:49.207Z,4.32
2022-08-05T07:08:35.989Z,4.28
2022-08-05T07:09:24.974Z,4.40
2022-08-05T07:10:14.863Z,4.40
2022-08-05T07:11:04.758Z,4.75
2022-08-05T07:11:52.367Z,4.80
2022-08-05T07:12:57.682Z,5.25
2022-08-05T07:14:03.328Z,4.90
2022-08-05T07:15:09.699Z,5.20
2022-08-05T07:17:57.311Z,5.57
2022-08-05T07:18:00.459Z,5.10
2022-08-05T07:18:30.338Z,5.00
2022-08-05T07:19:44.249Z,5.18
2022-08-05T07:20:38.743Z,5.32
2022-08-05T07:21:26.145Z,4.97
2022-08-05T07:22:12.909Z,5.32
2022-08-05T07:23:02.699Z,5.10
2022-08-05T07:23:52.375Z,6.32
2022-08-05T07:24:43.958Z,5.10
2022-08-05T07:25:55.464Z,5.00
2022-08-05T07:26:44.761Z,5.28
2022-08-05T07:27:56.389Z,5.50
2022-08-05T07:28:39.983Z,5.47
2022-08-05T07:30:22.160Z,5.37
2022-08-05T07:30:38.370Z,5.10
2022-08-05T07:31:54.077Z,5.22
2022-08-05T07:32:37.788Z,4.90
2022-08-05T07:33:36.577Z,5.15
2022-08-05T07:34:28.571Z,5.20
2022-08-05T07:36:02.655Z,5.30
2022-08-05T07:36:22.384Z,5.18
2022-08-05T07:37:11.710Z,4.82
2022-08-05T07:37:58.628Z,4.97
2022-08-05T07:38:46.269Z,4.68
2022-08-05T07:40:04.181Z,4.75
2022-08-05T07:40:44.605Z,4.95
2022-08-05T07:42:08.710Z,4.97
2022-08-05T07:42:38.182Z,4.80
2022-08-05T07:43:25.059Z,5.00
2022-08-05T07:44:19.443Z,4.37
2022-08-05T07:45:09.268Z,4.45
2022-08-05T07:45:57.098Z,4.50
2022-08-05T07:46:48.598Z,4.57
2022-08-05T07:47:42.499Z,5.50
2022-08-05T07:49:02.984Z,4.35
2022-08-05T07:49:43.630Z,4.62
2022-08-05T07:50:41.260Z,4.93
2022-08-05T07:51:36.714Z,4.65
2022-08-05T07:52:27.397Z,4.75
2022-08-05T07:53:14.869Z,4.45
2022-08-05T07:54:02.014Z,4.40
2022-08-05T07:54:49.366Z,4.47
2022-08-05T07:56:05.869Z,4.43
2022-08-05T07:57:13.575Z,4.37
2022-08-05T07:58:02.379Z,4.10
2022-08-05T07:58:57.676Z,4.60
2022-08-05T07:59:46.839Z,4.05
2022-08-05T08:00:35.732Z,4.40
2022-08-05T08:01:25.411Z,4.60
2022-08-05T08:02:17.927Z,4.60
2022-08-05T08:03:14.938Z,4.30
2022-08-05T08:04:03.179Z,4.40
2022-08-05T08:04:50.978Z,4.25
2022-08-05T08:05:49.845Z,4.28
2022-08-05T08:06:36.970Z,4.10
2022-08-05T08:07:24.059Z,4.03
2022-08-05T08:08:12.195Z,4.07
2022-08-05T08:08:59.391Z,4.00
2022-08-05T08:09:48.131Z,10.70
2022-08-05T08:10:34.909Z,6.30
2022-08-05T08:11:27.574Z,5.10
2022-08-05T08:12:48.414Z,4.30
2022-08-05T08:13:42.998Z,4.30
2022-08-05T08:14:36.359Z,4.10
2022-08-05T08:15:37.092Z,4.00
2022-08-05T08:16:35.251Z,4.20
2022-08-05T08:17:36.929Z,4.10
2022-08-05T08:18:24.358Z,4.47
2022-08-05T08:20:10.080Z,4.47
2022-08-05T08:20:43.336Z,4.00
2022-08-05T08:21:25.390Z,4.32
2022-08-05T08:22:16.017Z,4.10
2022-08-05T08:23:03.520Z,4.28
2022-08-05T08:24:02.840Z,4.60
2022-08-05T08:24:52.152Z,4.47
2022-08-05T08:26:00.579Z,5.57
2022-08-05T08:26:46.310Z,4.95
2022-08-05T08:27:40.159Z,4.20
2022-08-05T08:28:36.335Z,4.35
2022-08-05T08:30:03.295Z,4.37
2022-08-05T08:30:40.854Z,4.25
2022-08-05T08:31:34.299Z,4.35
2022-08-05T08:32:27.977Z,4.32
2022-08-05T08:33:15.128Z,4.10
2022-08-05T08:34:01.939Z,4.00
2022-08-05T08:34:49.005Z,4.20
2022-08-05T08:35:41.275Z,4.50
2022-08-05T08:36:38.708Z,4.55
2022-08-05T08:37:30.001Z,4.43
2022-08-05T08:38:35.411Z,4.60
2022-08-05T08:39:24.882Z,4.25
2022-08-05T08:40:13.149Z,4.25
2022-08-05T08:41:00.851Z,4.50
2022-08-05T08:41:51.055Z,4.55
2022-08-05T08:42:51.040Z,4.60
2022-08-05T08:45:19.799Z,4.47
2022-08-05T08:45:20.620Z,5.22
2022-08-05T08:45:56.251Z,4.20
2022-08-05T08:46:44.318Z,4.80
2022-08-05T08:48:06.028Z,4.50
2022-08-05T08:49:04.149Z,4.40
2022-08-05T08:50:13.178Z,4.43
2022-08-05T08:52:13.706Z,4.50
2022-08-05T08:53:07.941Z,4.30
2022-08-05T08:53:55.318Z,4.43
2022-08-05T08:54:43.429Z,3.80
2022-08-05T08:56:02.703Z,3.90
2022-08-05T08:56:47.669Z,4.22
2022-08-05T08:57:42.023Z,4.10
2022-08-05T08:58:43.636Z,4.30
2022-08-05T08:59:36.430Z,3.92
2022-08-05T09:00:23.369Z,4.10
2022-08-05T09:01:17.238Z,4.05
2022-08-05T09:02:08.475Z,4.28
2022-08-05T09:02:56.768Z,4.20
2022-08-05T09:03:53.068Z,4.30
2022-08-05T09:04:58.467Z,4.10
2022-08-05T09:06:09.103Z,3.90
2022-08-05T09:06:56.320Z,4.20
2022-08-05T09:07:57.779Z,4.30
2022-08-05T09:08:44.990Z,4.10
2022-08-05T09:09:35.414Z,4.10
2022-08-05T09:10:26.998Z,3.90
2022-08-05T09:11:15.314Z,3.80
2022-08-05T09:12:19.875Z,4.03
2022-08-05T09:13:07.439Z,3.87
2022-08-05T09:14:09.166Z,3.90
2022-08-05T09:15:06.390Z,4.00
2022-08-05T09:15:53.449Z,3.83
2022-08-05T09:16:41.869Z,4.10
2022-08-05T09:17:42.899Z,4.28
2022-08-05T09:18:32.540Z,4.22
2022-08-05T09:19:19.307Z,4.15
2022-08-05T09:20:36.187Z,4.00
2022-08-05T09:22:23.170Z,4.18
2022-08-05T09:23:05.023Z,4.07
2022-08-05T09:24:10.139Z,4.12
2022-08-05T09:24:58.819Z,4.18
2022-08-05T09:26:00.969Z,4.07
2022-08-05T09:26:52.261Z,3.92
2022-08-05T09:28:03.800Z,4.43
2022-08-05T09:28:48.319Z,4.10
2022-08-05T09:29:47.574Z,4.30
2022-08-05T09:30:35.158Z,4.12
2022-08-05T09:32:40.268Z,4.20
2022-08-05T09:32:41.209Z,4.03
2022-08-05T09:33:35.144Z,4.37
2022-08-05T09:34:22.622Z,4.93
2022-08-05T09:35:26.784Z,4.40
2022-08-05T09:36:16.629Z,4.35
2022-08-05T09:37:17.725Z,4.05
2022-08-05T09:38:27.618Z,4.18
2022-08-05T09:39:21.896Z,4.20
2022-08-05T09:40:10.171Z,4.25
2022-08-05T09:41:10.118Z,4.12
2022-08-05T09:42:04.578Z,3.90
2022-08-05T09:42:51.331Z,3.85
2022-08-05T09:43:42.207Z,3.90
2022-08-05T09:44:38.906Z,4.20
2022-08-05T09:46:06.960Z,4.28
2022-08-05T09:46:51.951Z,4.15
2022-08-05T09:47:55.527Z,3.92
2022-08-05T09:48:43.499Z,4.20
2022-08-05T09:50:01.093Z,3.90
2022-08-05T09:50:50.870Z,3.97
2022-08-05T09:51:39.995Z,3.97
2022-08-05T09:52:31.485Z,3.97
2022-08-05T09:53:26.060Z,4.12
2022-08-05T09:54:32.273Z,3.92
2022-08-05T09:55:56.674Z,4.05
2022-08-05T09:56:27.500Z,3.92
2022-08-05T09:57:39.468Z,3.97
2022-08-05T09:58:29.133Z,4.37
2022-08-05T09:59:17.576Z,3.65
2022-08-05T10:00:08.426Z,3.90
2022-08-05T10:01:15.072Z,3.72
2022-08-05T10:02:10.047Z,4.00
2022-08-05T10:02:58.112Z,4.20
2022-08-05T10:04:10.272Z,3.90
2022-08-05T10:05:04.598Z,4.25
2022-08-05T10:06:15.485Z,4.15
2022-08-05T10:07:06.139Z,4.05
2022-08-05T10:08:36.744Z,3.87
2022-08-05T10:09:16.470Z,4.30
2022-08-05T10:10:15.936Z,4.20
2022-08-05T10:11:07.010Z,4.30
2022-08-05T10:12:18.515Z,3.47
2022-08-05T10:13:45.817Z,4.03
2022-08-05T10:14:35.239Z,4.03
2022-08-05T10:15:35.089Z,4.10
2022-08-05T10:16:37.678Z,4.37
2022-08-05T10:17:37.705Z,3.80
2022-08-05T10:18:27.848Z,3.60
2022-08-05T10:19:16.399Z,4.65
2022-08-05T10:20:18.251Z,3.78
2022-08-05T10:21:08.666Z,4.32
2022-08-05T10:22:02.260Z,4.07
2022-08-05T10:22:51.137Z,4.00
2022-08-05T10:23:59.052Z,4.30
2022-08-05T10:24:46.426Z,3.90
2022-08-05T10:25:37.619Z,3.87
2022-08-05T10:26:32.629Z,3.80
2022-08-05T10:27:26.247Z,3.87
2022-08-05T10:28:29.459Z,4.12
2022-08-05T10:29:23.626Z,3.97
2022-08-05T10:31:20.052Z,3.92
2022-08-05T10:32:52.206Z,4.40
2022-08-05T10:33:01.486Z,4.20
2022-08-05T10:33:43.392Z,3.75
2022-08-05T10:34:31.390Z,3.95
2022-08-05T10:35:18.241Z,3.60
2022-08-05T10:36:06.231Z,3.90
2022-08-05T10:36:53.087Z,3.65
2022-08-05T10:37:44.929Z,3.60
2022-08-05T10:38:33.988Z,3.90
2022-08-05T10:40:03.469Z,3.67
2022-08-05T10:40:45.169Z,3.70
2022-08-05T10:41:44.827Z,3.72
2022-08-05T10:42:38.818Z,3.83
2022-08-05T10:43:48.619Z,4.32
2022-08-05T10:44:36.112Z,3.90
2022-08-05T10:45:39.725Z,4.25
2022-08-05T10:46:50.561Z,3.62
2022-08-05T10:47:56.157Z,3.80
2022-08-05T10:49:09.624Z,3.90
2022-08-05T10:50:31.961Z,4.22
2022-08-05T10:51:22.436Z,4.05
2022-08-05T10:52:10.234Z,3.55
2022-08-05T10:52:58.460Z,3.70
2022-08-05T10:53:51.679Z,3.75
2022-08-05T10:54:56.067Z,3.80
2022-08-05T10:56:05.131Z,3.78
2022-08-05T10:57:12.778Z,4.32
2022-08-05T10:58:09.636Z,3.87
2022-08-05T10:58:58.458Z,3.53
2022-08-05T11:00:19.821Z,3.92
2022-08-05T11:01:08.328Z,3.58
2022-08-05T11:02:14.111Z,3.85
2022-08-05T11:03:25.349Z,3.62
2022-08-05T11:04:18.519Z,3.72
2022-08-05T11:05:11.151Z,3.80
2022-08-05T11:06:04.830Z,3.80
2022-08-05T11:07:01.582Z,3.87
2022-08-05T11:08:01.160Z,3.75
2022-08-05T11:09:13.193Z,3.72
2022-08-05T11:10:09.956Z,3.70
2022-08-05T11:11:33.038Z,3.75
2022-08-05T11:12:34.733Z,4.47
2022-08-05T11:13:40.807Z,3.83
2022-08-05T11:15:01.293Z,4.43
2022-08-05T11:16:33.742Z,3.50
2022-08-05T11:17:56.777Z,3.50
2022-08-05T11:18:34.610Z,3.83
2022-08-05T11:20:16.652Z,3.70
2022-08-05T11:20:41.699Z,3.67
2022-08-05T11:21:49.007Z,3.67
2022-08-05T11:22:54.014Z,3.80
2022-08-05T11:24:04.649Z,3.65
2022-08-05T11:26:05.630Z,3.60
2022-08-05T11:26:43.518Z,3.55
2022-08-05T11:27:50.804Z,3.78
2022-08-05T11:28:39.999Z,3.85
2022-08-05T11:29:47.198Z,3.60
2022-08-05T11:31:06.544Z,3.65
2022-08-05T11:32:29.318Z,3.60
2022-08-05T11:33:34.555Z,3.72
2022-08-05T11:34:54.411Z,3.80
2022-08-05T11:36:04.461Z,3.42
2022-08-05T11:36:55.698Z,4.45
2022-08-05T11:38:30.407Z,3.60
2022-08-05T11:39:08.438Z,3.53
2022-08-05T11:40:02.981Z,3.70
2022-08-05T11:41:03.537Z,3.83
2022-08-05T11:42:04.546Z,3.90
2022-08-05T11:42:51.690Z,3.60
2022-08-05T11:44:04.950Z,4.10
2022-08-05T11:44:53.840Z,4.18
2022-08-05T11:46:29.889Z,3.60
2022-08-05T11:47:09.925Z,3.60
2022-08-05T11:47:59.009Z,3.80
2022-08-05T11:48:45.747Z,3.72
2022-08-05T11:49:33.969Z,3.60
2022-08-05T11:50:21.130Z,3.97
2022-08-05T11:51:08.495Z,4.00
2022-08-05T11:51:57.926Z,3.78
2022-08-05T11:52:48.890Z,4.53
2022-08-05T11:53:41.020Z,3.65
2022-08-05T11:54:34.970Z,3.58
2022-08-05T11:55:21.859Z,3.60
2022-08-05T11:56:19.369Z,3.53
2022-08-05T11:58:08.237Z,4.72
2022-08-05T11:58:40.249Z,3.78
2022-08-05T11:59:28.988Z,3.90
2022-08-05T12:00:38.310Z,3.67
2022-08-05T12:01:25.618Z,3.75
2022-08-05T12:02:30.298Z,3.60
2022-08-05T12:03:29.610Z,4.03
2022-08-05T12:04:19.069Z,3.58
2022-08-05T12:05:18.108Z,4.18
2022-08-05T12:06:10.056Z,3.80
2022-08-05T12:07:00.300Z,3.90
2022-08-05T12:08:08.484Z,3.90
2022-08-05T12:08:59.406Z,4.00
2022-08-05T12:09:53.986Z,3.72
2022-08-05T12:10:45.248Z,3.50
2022-08-05T12:11:40.134Z,3.75
2022-08-05T12:12:30.508Z,3.75
2022-08-05T12:13:27.856Z,4.07
2022-08-05T12:14:25.589Z,3.67
2022-08-05T12:15:38.375Z,3.60
2022-08-05T12:16:29.958Z,3.50
2022-08-05T12:18:04.073Z,3.60
2022-08-05T12:18:38.922Z,3.95
2022-08-05T12:20:16.828Z,4.18
2022-08-05T12:20:38.892Z,3.92
2022-08-05T12:21:32.220Z,3.67
2022-08-05T12:22:27.015Z,3.75
2022-08-05T12:23:13.898Z,3.40
2022-08-05T12:24:07.588Z,3.60
2022-08-05T12:24:56.297Z,3.80
2022-08-05T12:25:53.702Z,3.90
2022-08-05T12:26:51.004Z,3.80
2022-08-05T12:27:52.841Z,3.80
2022-08-05T12:28:40.229Z,3.42
2022-08-05T12:29:38.783Z,4.00
2022-08-05T12:30:32.131Z,3.67